Αναφορές Αεροδρομίων

 

KSJC - San Jose, California, USA
Distance from station: ΒΑ 14km
Ενημερώθηκε: 06/07/2022 19:47
unable to load KSJC data RC=
unable to load KSJC data RC=
 
KNUQ - Moffett Nas/Mtn, California, USA
Distance from station: Β 14km
Ενημερώθηκε: 28/06/2022 14:55
NOT Current

 Ανεμος από calm
Ανεμος: Απνοια
Θερμοκρασία: 15°C
Σημείο Δρόσου: 12°C
Υγρασία: 82%
Βαρόμετρο: 1017.9 hPa
Visibility: 16 km
2022/06/28 11:55 KNUQ 281155Z AUTO 00000KT 10SM 15/12 A3006 RMK AO2
 
KPAO - Palo Alto, California, USA
Distance from station: ΒΒΔ 23km
Ενημερώθηκε: 06/07/2022 18:47
Σχεδόν νεφελώδης
Σχεδόν νεφελώδης
 Ανεμος από varies
Ανεμος: varies 7 km/h
Θερμοκρασία: 19°C
Σημείο Δρόσου: 13°C
Υγρασία: 68%
Βαρόμετρο: 1015.9 hPa
Clouds: Σχεδόν νεφελώδης
Visibility: 16 km
Cloud details: Few Clouds 610 m
Σχεδόν νεφελώδης 1067 m
2022/07/06 15:47 KPAO 061547Z VRB04KT 10SM FEW020 BKN035 19/13 A3000
KRHV - San Jose/Reid, California, USA
Distance from station: ΑΒΑ 19km
Ενημερώθηκε: 06/07/2022 19:47
Συννεφιά
Συννεφιά
 Ανεμος από calm
Ανεμος: Απνοια
Θερμοκρασία: 19°C
Σημείο Δρόσου: 12°C
Υγρασία: 64%
Βαρόμετρο: 1015.9 hPa
Clouds: Συννεφιά
Visibility: 16 km
Cloud details: Συννεφιά 914 m
2022/07/06 16:47 KRHV 061647Z 00000KT 10SM OVC030 19/12 A3000
 
KOAK - Oakland, California, USA
Distance from station: ΒΒΔ 50km
Ενημερώθηκε: 06/07/2022 18:53
Σχεδόν νεφελώδης
Σχεδόν νεφελώδης
 Ανεμος από Δ
Ανεμος: Δ 13 km/h
Θερμοκρασία: 18°C
Σημείο Δρόσου: 14°C
Υγρασία: 78%
Βαρόμετρο: 1016.3 hPa
Clouds: Σχεδόν νεφελώδης
Visibility: 16 km
Cloud details: Few Clouds 244 m
Few Clouds 457 m
Σχεδόν νεφελώδης 945 m
2022/07/06 15:53 KOAK 061553Z 26007KT 10SM FEW008 FEW015 BKN031 18/14 A3001 RMK AO2 SLP160 T01830139
KSQL - San Carlos Airpo, California, USA
Distance from station: ΒΔ 34km
Ενημερώθηκε: 06/07/2022 18:47
Σχεδόν νεφελώδης
Σχεδόν νεφελώδης
 Ανεμος από ΝΔ
Ανεμος: ΝΔ 15 km/h
Θερμοκρασία: 18°C
Σημείο Δρόσου: 13°C
Υγρασία: 73%
Βαρόμετρο: 1015.9 hPa
Clouds: Σχεδόν νεφελώδης
Visibility: 16 km
Cloud details: Μερικώς νεφελώδης 671 m
Σχεδόν νεφελώδης 914 m
2022/07/06 15:47 KSQL 061547Z 23008KT 10SM SCT022 BKN030 18/13 A3000
 
KSFO - San Francisco, California, USA
Distance from station: ΒΔ 49km
Ενημερώθηκε: 06/07/2022 19:47
unable to load KSFO data RC=
unable to load KSFO data RC=
 
KE16 - San Martin, California, USA
Distance from station: ΑΝΑ 43km
Ενημερώθηκε: 06/07/2022 19:35
Συννεφιά
Συννεφιά
 Ανεμος από Ν
Ανεμος: Ν 7 km/h
Θερμοκρασία: 18°C
Σημείο Δρόσου: 13°C
Υγρασία: 73%
Βαρόμετρο: 1016.6 hPa
Clouds: Συννεφιά
Visibility: 16 km
Cloud details: Σχεδόν νεφελώδης 701 m
Συννεφιά 853 m
2022/07/06 16:35 KE16 061635Z AUTO 17004KT 10SM BKN023 OVC028 18/13 A3002 RMK AO2
 
KWVI - Watsonville, California, USA
Distance from station: ΝΝΑ 44km
Ενημερώθηκε: 06/07/2022 19:39
Συννεφιά
Συννεφιά
 Ανεμος από ΝΔ
Ανεμος: ΝΔ 11 km/h
Θερμοκρασία: 18°C
Σημείο Δρόσου: 14°C
Υγρασία: 78%
Βαρόμετρο: 1016.6 hPa
Clouds: Συννεφιά
Visibility: 16 km
Cloud details: Few Clouds 305 m
Συννεφιά 792 m
2022/07/06 16:39 KWVI 061639Z AUTO 23006KT 10SM FEW010 OVC026 18/14 A3002 RMK AO2 T01780139
KHAF - Half Moon Bay, California, USA
Distance from station: ΔΒΔ 50km
Ενημερώθηκε: 06/07/2022 19:35
Mist, Σχεδόν νεφελώδης
Mist, Σχεδόν νεφελώδης
 
Θερμοκρασία: 16°C
Σημείο Δρόσου: 16°C
Υγρασία: 100%
Βαρόμετρο: 1016.3 hPa
Περίληψη: Mist
Clouds: Σχεδόν νεφελώδης
Visibility: 6 km
Cloud details: Μερικώς νεφελώδης 183 m
Σχεδόν νεφελώδης 274 m
2022/07/06 16:35 KHAF 061635Z AUTO 4SM BR SCT006 BKN009 16/16 A3001 RMK AO2
 
KHWD - Hayward, California, USA
Distance from station: Β 44km
Ενημερώθηκε: 06/07/2022 18:54
Συννεφιά
Συννεφιά
 Ανεμος από Δ
Ανεμος: Δ 11 km/h
Θερμοκρασία: 19°C
Σημείο Δρόσου: 13°C
Υγρασία: 68%
Βαρόμετρο: 1015.6 hPa
Clouds: Συννεφιά
Visibility: 16 km
Cloud details: Μερικώς νεφελώδης 549 m
Μερικώς νεφελώδης 762 m
Συννεφιά 1006 m
2022/07/06 15:54 KHWD 061554Z 26006KT 10SM SCT018 SCT025 OVC033 19/13 A2999 RMK AO2 SLP164 T01890133
KLVK - Livermore, California, USA
Distance from station: ΒΒΑ 51km
Ενημερώθηκε: 06/07/2022 18:53
Συννεφιά
Συννεφιά
 Ανεμος από ΔΒΔ
Ανεμος: ΔΒΔ 22 km/h
Θερμοκρασία: 19°C
Σημείο Δρόσου: 13°C
Υγρασία: 68%
Βαρόμετρο: 1015.2 hPa
Clouds: Συννεφιά
Visibility: 16 km
Cloud details: Συννεφιά 945 m
2022/07/06 15:53 KLVK 061553Z 29012KT 10SM OVC031 19/13 A2998 RMK AO2 SLP150 T01890128